Time;durP1;ratioP1;P1;durP2;ratioP2;P2;SDS_P1;SDS_P2;PMS_P1;PMS_P2;Temp;Humidity;BMP_temperature;BMP_pressure;BME280_temperature;BME280_humidity;BME280_pressure;Samples;Min_cycle;Max_cycle;Signal;HPM_P1;HPM_P2
2021/03/17 00:00:41;;;;;;;23.15;4.47;;;6.60;99.90;;;;;;4940443;29;20091;-89
2021/03/17 00:03:07;;;;;;;17.58;3.90;;;6.60;99.90;;;;;;4957074;28;20051;-89
2021/03/17 00:05:35;;;;;;;15.35;3.08;;;6.50;99.90;;;;;;4940089;29;20473;-89
2021/03/17 00:08:02;;;;;;;19.02;3.22;;;6.50;99.90;;;;;;4940229;29;20551;-89
2021/03/17 00:10:31;;;;;;;14.63;3.05;;;6.50;99.90;;;;;;4939779;29;20023;-89
2021/03/17 00:12:58;;;;;;;19.02;4.05;;;6.50;99.90;;;;;;4940023;29;20027;-89
2021/03/17 00:15:29;;;;;;;18.70;2.72;;;6.40;99.90;;;;;;4938615;29;20050;-88
2021/03/17 00:17:55;;;;;;;26.92;5.53;;;6.40;99.90;;;;;;4938753;29;20389;-89
2021/03/17 00:20:26;;;;;;;21.95;3.17;;;6.40;99.90;;;;;;4938014;29;20031;-89
2021/03/17 00:22:52;;;;;;;17.70;3.60;;;6.30;99.90;;;;;;4938482;29;20027;-89
2021/03/17 00:25:20;;;;;;;14.75;3.30;;;6.30;99.90;;;;;;4938217;29;20516;-88
2021/03/17 00:27:46;;;;;;;13.82;3.22;;;6.30;99.90;;;;;;4938813;29;20027;-89
2021/03/17 00:30:12;;;;;;;13.98;3.38;;;6.20;99.90;;;;;;4955643;29;20027;-89
2021/03/17 00:32:38;;;;;;;16.38;3.03;;;6.20;99.90;;;;;;4938809;29;20062;-89
2021/03/17 00:35:04;;;;;;;19.98;3.40;;;6.20;99.90;;;;;;4938755;29;20066;-89
2021/03/17 00:37:30;;;;;;;12.98;2.55;;;6.20;99.90;;;;;;4938789;29;20026;-89
2021/03/17 00:39:55;;;;;;;12.18;2.83;;;6.10;99.90;;;;;;4938901;29;20035;-89
2021/03/17 00:42:21;;;;;;;14.50;2.90;;;6.10;99.90;;;;;;4938856;29;20125;-89
2021/03/17 00:44:47;;;;;;;14.32;2.90;;;6.10;99.90;;;;;;4939867;29;20023;-89
2021/03/17 00:47:12;;;;;;;17.83;4.00;;;6.10;99.90;;;;;;4940744;29;20397;-88
2021/03/17 00:49:38;;;;;;;18.48;3.75;;;6.00;99.90;;;;;;4939977;29;20118;-88
2021/03/17 00:52:04;;;;;;;26.58;3.92;;;6.00;99.90;;;;;;4956493;29;20024;-89
2021/03/17 00:54:29;;;;;;;15.45;2.85;;;5.90;99.90;;;;;;4938626;29;20067;-89
2021/03/17 00:56:55;;;;;;;15.90;3.33;;;5.80;99.90;;;;;;4939418;29;20122;-89
2021/03/17 00:59:21;;;;;;;21.90;3.15;;;5.80;99.90;;;;;;4939083;29;20085;-88
2021/03/17 01:01:46;;;;;;;13.70;2.90;;;5.80;99.90;;;;;;4938840;29;20114;-89
2021/03/17 01:04:12;;;;;;;15.98;3.28;;;5.80;99.90;;;;;;4938714;29;20074;-89
2021/03/17 01:06:38;;;;;;;18.27;2.70;;;5.70;99.90;;;;;;4955739;29;20027;-89
2021/03/17 01:09:04;;;;;;;22.20;3.20;;;5.70;99.90;;;;;;4938396;29;20090;-89
2021/03/17 01:11:29;;;;;;;18.20;3.78;;;5.70;99.90;;;;;;4938656;29;20485;-89
2021/03/17 01:13:55;;;;;;;22.42;3.53;;;5.60;99.90;;;;;;4938346;29;20114;-88
2021/03/17 01:16:21;;;;;;;23.25;3.83;;;5.60;99.90;;;;;;4938540;29;20027;-89
2021/03/17 01:18:46;;;;;;;20.67;3.42;;;5.50;99.90;;;;;;4938651;29;20028;-89
2021/03/17 01:21:12;;;;;;;22.08;3.50;;;5.50;99.90;;;;;;4937445;29;20027;-89
2021/03/17 01:23:38;;;;;;;14.55;3.17;;;5.50;99.90;;;;;;4957421;29;20023;-89
2021/03/17 01:26:03;;;;;;;19.38;3.50;;;5.50;99.90;;;;;;4941480;29;20110;-90
2021/03/17 01:28:29;;;;;;;20.33;3.47;;;5.40;99.90;;;;;;4947595;29;20078;-89
2021/03/17 01:30:57;;;;;;;20.92;3.05;;;5.40;99.90;;;;;;4949101;29;20038;-89
2021/03/17 01:33:27;;;;;;;12.43;2.78;;;5.40;99.90;;;;;;4980478;28;20031;-89
2021/03/17 01:35:53;;;;;;;17.10;3.08;;;5.40;99.90;;;;;;4966217;29;20035;-91
2021/03/17 01:38:20;;;;;;;13.57;3.40;;;5.40;99.90;;;;;;4951878;29;20043;-90
2021/03/17 01:40:47;;;;;;;14.98;2.97;;;5.30;99.90;;;;;;4946599;29;20119;-89
2021/03/17 01:43:13;;;;;;;23.10;3.67;;;5.30;99.90;;;;;;4945384;29;20027;-90
2021/03/17 01:45:40;;;;;;;11.93;2.80;;;5.30;99.90;;;;;;4944600;29;20031;-90
2021/03/17 01:48:06;;;;;;;15.27;3.20;;;5.30;99.90;;;;;;4944080;29;20404;-89
2021/03/17 01:50:38;;;;;;;15.38;2.92;;;5.20;99.90;;;;;;4943776;29;20023;-89
2021/03/17 01:53:15;;;;;;;21.48;4.00;;;5.20;99.90;;;;;;4943669;29;20039;-89
2021/03/17 01:55:42;;;;;;;15.85;2.70;;;5.20;99.90;;;;;;4961778;29;20055;-89
2021/03/17 01:58:09;;;;;;;16.48;3.50;;;5.10;99.90;;;;;;4943388;29;20027;-90
2021/03/17 02:00:35;;;;;;;17.52;2.92;;;5.10;99.90;;;;;;4943019;29;20027;-89
2021/03/17 02:03:01;;;;;;;14.55;2.95;;;5.10;99.90;;;;;;4943381;28;20023;-90
2021/03/17 02:05:31;;;;;;;15.15;3.03;;;5.10;99.90;;;;;;4942918;29;20026;-90
2021/03/17 02:08:03;;;;;;;17.65;2.78;;;5.10;99.90;;;;;;4943270;29;20039;-90
2021/03/17 02:10:30;;;;;;;18.27;3.50;;;5.10;99.90;;;;;;4960178;29;20472;-89
2021/03/17 02:13:18;;;;;;;14.68;2.80;;;5.10;99.90;;;;;;4942787;29;20042;-89
2021/03/17 02:16:29;;;;;;;14.43;2.25;;;5.20;99.90;;;;;;4929794;29;20049;-89
2021/03/17 02:19:23;;;;;;;17.10;3.03;;;5.20;99.90;;;;;;4846873;29;20041;-89
2021/03/17 02:21:49;;;;;;;13.30;2.67;;;5.20;99.90;;;;;;4836756;29;20037;-90
2021/03/17 02:24:34;;;;;;;18.75;2.70;;;5.20;99.90;;;;;;4846628;29;20093;-90
2021/03/17 02:27:30;;;;;;;9.70;2.75;;;5.30;99.90;;;;;;4846802;29;20033;-89
2021/03/17 02:30:33;;;;;;;13.95;3.53;;;5.20;99.90;;;;;;4846888;29;20105;-90
2021/03/17 02:33:25;;;;;;;20.52;2.63;;;5.20;99.90;;;;;;4862300;29;20112;-89
2021/03/17 02:35:55;;;;;;;15.30;2.42;;;5.30;99.90;;;;;;4846081;29;20054;-89
2021/03/17 02:38:22;;;;;;;15.13;2.25;;;5.20;99.90;;;;;;4846133;29;20043;-89
2021/03/17 02:40:53;;;;;;;11.68;2.47;;;5.20;99.90;;;;;;4861686;29;20042;-89
2021/03/17 02:43:21;;;;;;;;;;;5.20;99.90;;;;;;4845975;29;20038;-89
2021/03/17 02:45:53;;;;;;;20.13;3.30;;;5.20;99.90;;;;;;4861074;29;19960;-89
2021/03/17 02:48:23;;;;;;;21.25;3.05;;;5.20;99.90;;;;;;4845775;29;20070;-90
2021/03/17 02:50:51;;;;;;;22.67;4.45;;;5.10;99.90;;;;;;4846675;29;20187;-89
2021/03/17 02:53:21;;;;;;;16.85;2.42;;;5.10;99.90;;;;;;4853135;29;20062;-89
2021/03/17 02:56:14;;;;;;;16.80;2.35;;;5.10;99.90;;;;;;4940790;29;20142;-90
2021/03/17 02:58:44;;;;;;;17.50;2.90;;;5.10;99.90;;;;;;4937341;29;20039;-89
2021/03/17 03:01:13;;;;;;;16.90;2.78;;;5.00;99.90;;;;;;4940946;29;20023;-89
2021/03/17 03:03:39;;;;;;;13.00;2.72;;;5.00;99.90;;;;;;4940349;29;20090;-89
2021/03/17 03:06:07;;;;;;;15.68;2.88;;;5.00;99.90;;;;;;4940474;29;20090;-89
2021/03/17 03:08:36;;;;;;;16.40;3.00;;;5.00;99.90;;;;;;4940375;29;20034;-89
2021/03/17 03:11:03;;;;;;;10.70;2.13;;;4.90;99.90;;;;;;4940572;29;20031;-89
2021/03/17 03:13:31;;;;;;;16.13;2.50;;;4.90;99.90;;;;;;4940692;29;20035;-90
2021/03/17 03:15:57;;;;;;;12.73;2.17;;;4.90;99.90;;;;;;4957301;29;20033;-89
2021/03/17 03:18:25;;;;;;;11.63;2.25;;;4.90;99.90;;;;;;4940317;29;20404;-89
2021/03/17 03:20:54;;;;;;;14.38;2.38;;;4.90;99.90;;;;;;4940458;29;20031;-89
2021/03/17 03:23:22;;;;;;;20.73;3.45;;;4.80;99.90;;;;;;4941082;29;20155;-89
2021/03/17 03:25:49;;;;;;;17.88;2.80;;;4.90;99.90;;;;;;4940589;29;20027;-89
2021/03/17 03:28:17;;;;;;;17.02;2.67;;;4.80;99.90;;;;;;4940392;29;20058;-89
2021/03/17 03:30:47;;;;;;;13.57;2.63;;;4.80;99.90;;;;;;4941604;29;20027;-90
2021/03/17 03:33:13;;;;;;;13.45;2.30;;;4.80;99.90;;;;;;4957940;29;20106;-88
2021/03/17 03:35:43;;;;;;;11.70;1.92;;;4.90;99.90;;;;;;4940426;29;20035;-90
2021/03/17 03:38:10;;;;;;;12.48;2.55;;;4.80;99.90;;;;;;4957376;29;20024;-89
2021/03/17 03:40:36;;;;;;;11.55;3.25;;;4.90;99.90;;;;;;4939991;29;20090;-90
2021/03/17 03:43:05;;;;;;;9.35;2.38;;;4.90;99.90;;;;;;4940169;29;20548;-89
2021/03/17 03:45:31;;;;;;;11.90;2.17;;;4.90;99.90;;;;;;4939960;29;20123;-90
2021/03/17 03:47:57;;;;;;;17.60;3.05;;;4.90;99.90;;;;;;4939760;29;20061;-90
2021/03/17 03:50:25;;;;;;;10.60;2.25;;;4.90;99.90;;;;;;4939880;29;20099;-89
2021/03/17 03:53:09;;;;;;;10.20;2.08;;;5.00;99.90;;;;;;4939958;29;20122;-90
2021/03/17 03:55:56;;;;;;;14.73;2.22;;;5.00;99.90;;;;;;4938619;29;20437;-87
2021/03/17 03:58:29;;;;;;;14.88;2.17;;;5.00;99.90;;;;;;4939501;29;20027;-89
2021/03/17 04:01:02;;;;;;;13.18;2.13;;;5.00;99.90;;;;;;4939554;29;20481;-90
2021/03/17 04:03:32;;;;;;;12.60;2.15;;;5.00;99.90;;;;;;4939415;29;20039;-90
2021/03/17 04:05:58;;;;;;;14.38;3.03;;;5.00;99.90;;;;;;4939537;29;20027;-90
2021/03/17 04:08:26;;;;;;;13.00;1.90;;;5.10;99.90;;;;;;4939422;29;20122;-90
2021/03/17 04:10:55;;;;;;;14.52;2.85;;;5.10;99.90;;;;;;4939321;29;20035;-90
2021/03/17 04:13:22;;;;;;;13.32;2.30;;;5.10;99.90;;;;;;4939222;29;20095;-90
2021/03/17 04:15:49;;;;;;;8.10;1.95;;;5.10;99.90;;;;;;4938444;29;20086;-87
2021/03/17 04:18:17;;;;;;;12.10;1.85;;;5.10;99.90;;;;;;4938654;29;20023;-90
2021/03/17 04:20:46;;;;;;;13.68;2.28;;;5.00;99.90;;;;;;4938455;29;20027;-89
2021/03/17 04:23:15;;;;;;;13.57;2.30;;;4.90;99.90;;;;;;4938647;29;20034;-90
2021/03/17 04:25:45;;;;;;;14.48;2.10;;;4.90;99.90;;;;;;4938592;29;20019;-89
2021/03/17 04:28:15;;;;;;;16.70;1.85;;;4.90;99.90;;;;;;4937432;29;20079;-89
2021/03/17 04:30:41;;;;;;;10.80;1.98;;;4.80;99.90;;;;;;4954117;29;20050;-87
2021/03/17 04:33:08;;;;;;;15.32;1.80;;;4.70;99.90;;;;;;4937545;29;20034;-89
2021/03/17 04:35:34;;;;;;;11.98;2.47;;;4.70;99.90;;;;;;4922142;29;20043;-90
2021/03/17 04:38:00;;;;;;;9.82;2.72;;;4.60;99.90;;;;;;4937484;29;20030;-88
2021/03/17 04:40:27;;;;;;;19.50;3.33;;;4.60;99.90;;;;;;4938440;29;20047;-89
2021/03/17 04:42:56;;;;;;;11.32;2.50;;;4.70;99.90;;;;;;4937583;29;20038;-89
2021/03/17 04:45:23;;;;;;;9.90;1.77;;;4.70;99.90;;;;;;4954175;29;20110;-89
2021/03/17 04:47:53;;;;;;;15.27;2.05;;;4.80;99.90;;;;;;4937994;29;20035;-89
2021/03/17 04:50:19;;;;;;;9.70;1.55;;;4.80;99.90;;;;;;4937683;29;20062;-90
2021/03/17 04:52:45;;;;;;;20.30;3.55;;;4.80;99.90;;;;;;4939647;29;20035;-87
2021/03/17 04:55:13;;;;;;;10.85;1.73;;;4.80;99.90;;;;;;4955962;29;20059;-90
2021/03/17 04:57:41;;;;;;;16.88;2.05;;;4.80;99.90;;;;;;4956772;28;20027;-90
2021/03/17 05:00:12;;;;;;;19.02;2.97;;;4.80;99.90;;;;;;4960856;29;20050;-89
2021/03/17 05:02:40;;;;;;;11.88;1.65;;;4.80;99.90;;;;;;4949487;29;20486;-89
2021/03/17 05:05:08;;;;;;;5.85;1.45;;;4.70;99.90;;;;;;4958427;28;20035;-88
2021/03/17 05:07:37;;;;;;;15.00;2.00;;;4.70;99.90;;;;;;4957544;29;20031;-89
2021/03/17 05:10:04;;;;;;;10.07;2.10;;;4.70;99.90;;;;;;4948187;29;20036;-89
2021/03/17 05:12:31;;;;;;;16.92;1.98;;;4.80;99.90;;;;;;4943379;29;20020;-89
2021/03/17 05:14:58;;;;;;;14.98;3.45;;;4.80;99.90;;;;;;4941171;29;20612;-91
2021/03/17 05:17:24;;;;;;;19.23;3.80;;;4.80;99.90;;;;;;4957942;29;20166;-89
2021/03/17 05:19:51;;;;;;;15.65;2.30;;;4.70;99.90;;;;;;4939139;29;20050;-89
2021/03/17 05:22:18;;;;;;;12.98;2.80;;;4.70;99.90;;;;;;4956431;29;20031;-89
2021/03/17 05:24:44;;;;;;;22.30;3.88;;;4.60;99.90;;;;;;4955207;29;20027;-88
2021/03/17 05:27:18;;;;;;;14.10;2.53;;;4.50;99.90;;;;;;4938231;29;20481;-89
2021/03/17 05:29:45;;;;;;;11.38;2.38;;;4.40;99.90;;;;;;4939179;29;20054;-89
2021/03/17 05:32:12;;;;;;;13.57;2.17;;;4.40;99.90;;;;;;4940281;29;20074;-89
2021/03/17 05:34:56;;;;;;;16.55;2.08;;;4.40;99.90;;;;;;4939750;29;20070;-89
2021/03/17 05:37:22;;;;;;;10.68;2.20;;;4.40;99.90;;;;;;4939803;29;20031;-89
2021/03/17 05:39:48;;;;;;;17.40;2.10;;;4.50;99.90;;;;;;4939496;29;20122;-88
2021/03/17 05:42:14;;;;;;;14.38;1.75;;;4.40;99.90;;;;;;4939925;29;20062;-89
2021/03/17 05:44:40;;;;;;;16.90;2.38;;;4.40;99.90;;;;;;4939248;29;20047;-89
2021/03/17 05:47:08;;;;;;;10.50;2.28;;;4.40;99.90;;;;;;4939341;29;20098;-88
2021/03/17 05:49:35;;;;;;;14.65;4.60;;;4.30;99.90;;;;;;4939090;29;20370;-89
2021/03/17 05:52:01;;;;;;;11.75;2.10;;;4.30;99.90;;;;;;4938918;29;20062;-89
2021/03/17 05:54:27;;;;;;;17.50;2.38;;;4.20;99.90;;;;;;4938818;29;20055;-89
2021/03/17 05:56:53;;;;;;;14.93;2.30;;;4.10;99.90;;;;;;4938350;29;20504;-88
2021/03/17 05:59:19;;;;;;;12.15;2.20;;;4.20;99.90;;;;;;4938638;29;20042;-89
2021/03/17 06:01:45;;;;;;;21.25;2.30;;;4.20;99.90;;;;;;4938563;29;20502;-89
2021/03/17 06:04:12;;;;;;;13.82;1.80;;;4.20;99.90;;;;;;4938718;29;20045;-88
2021/03/17 06:06:41;;;;;;;14.25;2.20;;;4.20;99.90;;;;;;4938314;29;20538;-89
2021/03/17 06:09:09;;;;;;;12.55;2.50;;;4.30;99.90;;;;;;4938085;29;20034;-89
2021/03/17 06:11:36;;;;;;;17.52;2.28;;;4.20;99.90;;;;;;4938363;29;20058;-89
2021/03/17 06:14:11;;;;;;;16.67;2.38;;;4.20;99.90;;;;;;4938350;29;20136;-89
2021/03/17 06:16:39;;;;;;;14.88;3.15;;;4.20;99.90;;;;;;4938370;28;20503;-89
2021/03/17 06:19:06;;;;;;;12.60;2.75;;;4.20;99.90;;;;;;4941870;29;20056;-89
2021/03/17 06:21:32;;;;;;;16.98;3.88;;;4.20;99.90;;;;;;4959579;29;20058;-88
2021/03/17 06:23:58;;;;;;;14.75;2.55;;;4.20;99.90;;;;;;4942146;29;20063;-88
2021/03/17 06:26:25;;;;;;;17.42;2.78;;;4.20;99.90;;;;;;4942202;29;20544;-88
2021/03/17 06:28:51;;;;;;;9.27;2.47;;;4.20;99.90;;;;;;4941166;29;20031;-89
2021/03/17 06:31:19;;;;;;;14.95;2.28;;;4.20;99.90;;;;;;4941552;29;20130;-90
2021/03/17 06:33:44;;;;;;;18.05;2.53;;;4.20;99.90;;;;;;4952265;29;20033;-90
2021/03/17 06:36:11;;;;;;;13.80;2.08;;;4.20;99.90;;;;;;4956420;28;20039;-89
2021/03/17 06:38:37;;;;;;;13.27;2.63;;;4.20;99.90;;;;;;4941010;29;20027;-90
2021/03/17 06:41:03;;;;;;;27.67;3.83;;;4.20;99.90;;;;;;4941259;29;20034;-90
2021/03/17 06:43:43;;;;;;;18.95;4.07;;;4.30;99.90;;;;;;4941819;29;20024;-89
2021/03/17 06:46:14;;;;;;;26.40;4.55;;;4.30;99.90;;;;;;4942178;29;20618;-90
2021/03/17 06:48:41;;;;;;;16.13;4.07;;;4.30;99.90;;;;;;4952125;29;20050;-89
2021/03/17 06:51:17;;;;;;;9.82;3.35;;;4.30;99.90;;;;;;4936827;29;20055;-90
2021/03/17 06:53:53;;;;;;;14.93;2.75;;;4.30;99.90;;;;;;4951396;29;20027;-90
2021/03/17 06:56:33;;;;;;;17.88;2.60;;;4.30;99.90;;;;;;4941059;29;20058;-90
2021/03/17 06:59:06;;;;;;;16.98;4.45;;;4.30;99.90;;;;;;4920744;29;20036;-90
2021/03/17 07:01:40;;;;;;;17.30;3.20;;;4.30;99.90;;;;;;4958810;29;20382;-90
2021/03/17 07:04:06;;;;;;;14.32;2.88;;;4.30;99.90;;;;;;4940915;29;20184;-90
2021/03/17 07:06:34;;;;;;;13.27;2.30;;;4.30;99.90;;;;;;4939131;29;20038;-90
2021/03/17 07:09:19;;;;;;;16.95;4.45;;;4.30;99.90;;;;;;4944918;29;20031;-90
2021/03/17 07:11:50;;;;;;;21.77;3.47;;;4.40;99.90;;;;;;4940526;29;20082;-90
2021/03/17 07:14:25;;;;;;;;;;;4.40;99.90;;;;;;4941409;29;20043;-90
2021/03/17 07:16:52;;;;;;;19.75;5.05;;;4.40;99.90;;;;;;4957176;29;20388;-90
2021/03/17 07:19:38;;;;;;;27.35;5.45;;;4.40;99.90;;;;;;4933520;29;20515;-89
2021/03/17 07:22:08;;;;;;;15.95;4.72;;;4.40;99.90;;;;;;4953099;29;20481;-88
2021/03/17 07:24:35;;;;;;;27.77;5.95;;;4.50;99.90;;;;;;4938507;29;20034;-90
2021/03/17 07:27:25;;;;;;;23.70;7.55;;;4.50;99.90;;;;;;4937127;29;20023;-90
2021/03/17 07:29:59;;;;;;;21.48;6.97;;;4.50;99.90;;;;;;4934913;29;20035;-90
2021/03/17 07:32:25;;;;;;;18.85;5.57;;;4.60;99.90;;;;;;4939839;29;20092;-90
2021/03/17 07:34:51;;;;;;;24.58;6.80;;;4.60;99.90;;;;;;4939568;29;20047;-90
2021/03/17 07:37:24;;;;;;;22.67;6.32;;;4.60;99.90;;;;;;4926392;29;20503;-89
2021/03/17 07:39:50;;;;;;;30.88;6.55;;;4.70;99.90;;;;;;4929286;29;20035;-90
2021/03/17 07:42:16;;;;;;;29.75;6.35;;;4.70;99.90;;;;;;4930503;29;20028;-90
2021/03/17 07:44:43;;;;;;;19.40;5.80;;;4.70;99.90;;;;;;4944580;29;20449;-91
2021/03/17 07:47:11;;;;;;;27.70;5.88;;;4.80;99.90;;;;;;4936439;29;20113;-91
2021/03/17 07:49:41;;;;;;;26.02;6.65;;;4.80;99.90;;;;;;4935626;29;20168;-94
2021/03/17 07:52:14;;;;;;;26.25;5.97;;;4.90;99.90;;;;;;4939451;29;20425;-90
2021/03/17 07:54:48;;;;;;;20.17;5.43;;;4.90;99.90;;;;;;4933261;29;20039;-90
2021/03/17 07:57:16;;;;;;;19.45;6.53;;;5.00;99.90;;;;;;4931674;29;20076;-90
2021/03/17 07:59:44;;;;;;;17.38;5.40;;;5.00;99.90;;;;;;4954243;29;20481;-93
2021/03/17 08:02:10;;;;;;;23.23;5.90;;;5.10;99.90;;;;;;4939781;29;20031;-91
2021/03/17 08:04:36;;;;;;;17.63;5.20;;;5.10;99.90;;;;;;4939486;29;20180;-90
2021/03/17 08:07:05;;;;;;;19.63;5.75;;;5.20;99.90;;;;;;4939612;29;20106;-92
2021/03/17 08:09:32;;;;;;;23.95;6.00;;;5.20;99.90;;;;;;4941353;29;20074;-91
2021/03/17 08:12:07;;;;;;;23.27;5.50;;;5.30;99.90;;;;;;4940516;29;20027;-90
2021/03/17 08:14:34;;;;;;;26.42;6.15;;;5.40;99.90;;;;;;4937825;29;20038;-90
2021/03/17 08:17:00;;;;;;;21.98;5.03;;;5.40;99.90;;;;;;4942376;28;20019;-91
2021/03/17 08:19:30;;;;;;;22.63;5.45;;;5.50;99.90;;;;;;4940276;29;20385;-89
2021/03/17 08:22:02;;;;;;;20.25;4.93;;;5.50;99.90;;;;;;4945204;29;20469;-90
2021/03/17 08:24:34;;;;;;;23.23;5.03;;;5.60;99.90;;;;;;4938510;29;20038;-89
2021/03/17 08:27:06;;;;;;;20.77;5.05;;;5.60;99.90;;;;;;4938315;29;20031;-90
2021/03/17 08:30:09;;;;;;;23.30;5.35;;;5.70;99.90;;;;;;4950200;29;20035;-89
2021/03/17 08:33:02;;;;;;;21.27;4.90;;;5.80;99.90;;;;;;4905803;28;20038;-89
2021/03/17 08:36:00;;;;;;;24.58;4.78;;;5.80;99.90;;;;;;4945486;29;20051;-90
2021/03/17 08:38:55;;;;;;;28.13;5.40;;;5.90;99.90;;;;;;4950072;29;20043;-91
2021/03/17 08:41:36;;;;;;;16.63;4.00;;;6.00;99.90;;;;;;4962142;28;20043;-90
2021/03/17 08:44:14;;;;;;;;;;;6.10;99.90;;;;;;4959562;29;20039;-89
2021/03/17 08:46:40;;;;;;;22.70;5.38;;;6.10;99.90;;;;;;4945269;29;20153;-89
2021/03/17 08:49:08;;;;;;;24.60;6.18;;;6.20;99.90;;;;;;4943306;29;20476;-89
2021/03/17 08:51:49;;;;;;;13.05;4.03;;;6.20;99.90;;;;;;4920263;29;20020;-90
2021/03/17 08:54:32;;;;;;;19.95;4.47;;;6.30;99.90;;;;;;4940603;29;20118;-90
2021/03/17 08:57:05;;;;;;;16.48;4.50;;;6.40;99.90;;;;;;4921606;29;20040;-90
2021/03/17 08:59:54;;;;;;;17.67;4.07;;;6.40;99.90;;;;;;4921904;29;20059;-91
2021/03/17 09:02:26;;;;;;;17.05;3.97;;;6.50;99.90;;;;;;4918963;29;20641;-90
2021/03/17 09:05:21;;;;;;;14.85;3.95;;;6.60;99.90;;;;;;4936597;29;20568;-91
2021/03/17 09:08:07;;;;;;;17.23;3.88;;;6.70;99.90;;;;;;4938678;29;20115;-89
2021/03/17 09:10:45;;;;;;;18.35;3.63;;;6.80;99.90;;;;;;4935364;29;20020;-90
2021/03/17 09:13:12;;;;;;;15.35;3.53;;;6.90;99.90;;;;;;4961585;29;20082;-91
2021/03/17 09:16:03;;;;;;;16.52;2.88;;;6.90;99.90;;;;;;4945922;29;20035;-89
2021/03/17 09:18:29;;;;;;;22.40;3.60;;;7.00;99.90;;;;;;4942286;29;20028;-91
2021/03/17 09:20:55;;;;;;;12.48;3.88;;;7.00;99.90;;;;;;4940690;29;20085;-91
2021/03/17 09:23:34;;;;;;;17.30;4.13;;;7.00;99.90;;;;;;4940585;29;20050;-90
2021/03/17 09:26:01;;;;;;;15.05;4.57;;;7.10;99.90;;;;;;4940009;29;20027;-90
2021/03/17 09:28:35;;;;;;;19.90;4.88;;;7.10;99.90;;;;;;4940711;29;20094;-90
2021/03/17 09:31:11;;;;;;;24.58;4.53;;;7.10;99.90;;;;;;4957180;29;20079;-91
2021/03/17 09:33:42;;;;;;;18.75;4.45;;;7.10;99.90;;;;;;4956179;29;20035;-91
2021/03/17 09:36:08;;;;;;;;;;;7.00;99.90;;;;;;4939626;29;20027;-90
2021/03/17 09:38:39;;;;;;;24.52;5.20;;;7.10;99.90;;;;;;4956179;29;19910;-89
2021/03/17 09:41:10;;;;;;;19.25;4.10;;;7.00;99.90;;;;;;4951694;29;20031;-90
2021/03/17 09:43:40;;;;;;;21.90;3.80;;;7.10;99.90;;;;;;4938996;29;20070;-90
2021/03/17 09:46:37;;;;;;;16.48;5.03;;;7.10;99.90;;;;;;4935699;29;20031;-90
2021/03/17 09:49:08;;;;;;;19.50;4.43;;;7.10;99.90;;;;;;4937828;29;20110;-90
2021/03/17 09:51:40;;;;;;;20.00;4.57;;;7.10;99.90;;;;;;4953956;28;20108;-89
2021/03/17 09:54:09;;;;;;;21.17;4.78;;;7.10;99.90;;;;;;4940519;29;20043;-89
2021/03/17 09:56:44;;;;;;;16.73;4.00;;;7.10;99.90;;;;;;4940743;29;20047;-89
2021/03/17 09:59:38;;;;;;;19.23;5.15;;;7.20;99.90;;;;;;4942797;29;20024;-89
2021/03/17 10:02:13;;;;;;;17.98;4.68;;;7.20;99.90;;;;;;4944659;29;20028;-90
2021/03/17 10:04:53;;;;;;;16.50;3.30;;;7.20;99.90;;;;;;4945616;29;20035;-90
2021/03/17 10:07:21;;;;;;;20.35;4.45;;;7.20;99.90;;;;;;4951486;29;20035;-90
2021/03/17 10:09:48;;;;;;;22.27;5.30;;;7.30;99.90;;;;;;4932466;29;20031;-90
2021/03/17 10:12:17;;;;;;;25.88;4.68;;;7.30;99.90;;;;;;4941552;29;20551;-91
2021/03/17 10:14:45;;;;;;;21.48;5.40;;;7.30;99.90;;;;;;4941561;29;20094;-90
2021/03/17 10:17:12;;;;;;;18.83;4.57;;;7.30;99.90;;;;;;4941257;29;20058;-90
2021/03/17 10:19:40;;;;;;;15.40;4.88;;;7.40;99.90;;;;;;4940333;29;20027;-89
2021/03/17 10:22:07;;;;;;;16.90;4.22;;;7.40;99.90;;;;;;4940954;29;20019;-90
2021/03/17 10:24:42;;;;;;;19.38;6.35;;;7.40;99.90;;;;;;4957301;29;20477;-88
2021/03/17 10:27:13;;;;;;;20.20;5.63;;;7.40;99.90;;;;;;4938749;29;20023;-89
2021/03/17 10:29:39;;;;;;;;;;;7.40;99.90;;;;;;4940154;29;20031;-89
2021/03/17 10:32:07;;;;;;;25.80;5.00;;;7.50;99.90;;;;;;4939693;29;19911;-89
2021/03/17 10:34:34;;;;;;;24.55;5.88;;;7.50;99.90;;;;;;4935716;29;20027;-90
2021/03/17 10:37:00;;;;;;;19.88;4.38;;;7.50;99.90;;;;;;4937362;29;20028;-91
2021/03/17 10:39:34;;;;;;;18.58;4.00;;;7.60;99.90;;;;;;4940831;29;20062;-91
2021/03/17 10:42:02;;;;;;;19.05;5.65;;;7.60;99.90;;;;;;4941335;29;20059;-91
2021/03/17 10:44:30;;;;;;;16.02;5.28;;;7.60;99.90;;;;;;4941760;29;20031;-90
2021/03/17 10:47:00;;;;;;;18.65;5.93;;;7.60;99.90;;;;;;4948712;29;20059;-92
2021/03/17 10:49:26;;;;;;;22.65;5.40;;;7.60;99.90;;;;;;4942026;29;20071;-93
2021/03/17 10:51:55;;;;;;;18.40;4.70;;;7.60;99.90;;;;;;4942236;29;20034;-93
2021/03/17 10:54:27;;;;;;;21.85;6.43;;;7.60;99.90;;;;;;4926182;29;20097;-93
2021/03/17 10:56:53;;;;;;;20.65;4.38;;;7.70;99.90;;;;;;4940685;29;20047;-92
2021/03/17 10:59:25;;;;;;;16.70;4.00;;;7.70;99.90;;;;;;4941212;29;20381;-92
2021/03/17 11:02:26;;;;;;;18.77;4.07;;;7.70;99.90;;;;;;4958366;29;20049;-92
2021/03/17 11:05:15;;;;;;;14.63;3.55;;;7.70;99.90;;;;;;4943144;29;20031;-91
2021/03/17 11:08:04;;;;;;;16.98;3.60;;;7.70;99.90;;;;;;4943885;29;20031;-92
2021/03/17 11:10:33;;;;;;;15.10;4.28;;;7.80;99.90;;;;;;4931025;29;20199;-91
2021/03/17 11:13:19;;;;;;;19.50;4.10;;;7.80;99.90;;;;;;4940955;29;20432;-90
2021/03/17 11:15:53;;;;;;;14.95;4.18;;;7.80;99.90;;;;;;4937007;29;20031;-91
2021/03/17 11:18:25;;;;;;;11.93;3.17;;;7.90;99.90;;;;;;4939490;29;20027;-92
2021/03/17 11:20:52;;;;;;;20.88;3.70;;;8.00;99.90;;;;;;4936513;29;20040;-92
2021/03/17 11:23:27;;;;;;;14.32;3.30;;;8.00;99.90;;;;;;4940404;29;20428;-92
2021/03/17 11:25:55;;;;;;;15.20;2.90;;;8.10;99.90;;;;;;4941559;29;20023;-92
2021/03/17 11:28:23;;;;;;;10.60;3.58;;;8.20;99.90;;;;;;4940508;29;20031;-93
2021/03/17 11:30:56;;;;;;;13.80;3.28;;;8.30;99.90;;;;;;4940578;29;20031;-92
2021/03/17 11:33:23;;;;;;;15.95;3.10;;;8.30;99.90;;;;;;4941150;29;20055;-92
2021/03/17 11:35:50;;;;;;;16.33;4.03;;;8.40;99.90;;;;;;4940875;29;20063;-91
2021/03/17 11:38:17;;;;;;;14.57;3.38;;;8.40;99.90;;;;;;4940801;29;20572;-92
2021/03/17 11:40:44;;;;;;;11.68;2.88;;;8.50;99.90;;;;;;4940466;29;20027;-92
2021/03/17 11:43:15;;;;;;;15.55;3.28;;;8.60;99.90;;;;;;4940439;29;20078;-92
2021/03/17 11:45:42;;;;;;;16.10;3.45;;;8.60;99.90;;;;;;4940293;29;20063;-92
2021/03/17 11:48:09;;;;;;;15.35;4.57;;;8.70;99.90;;;;;;4941679;29;20031;-93
2021/03/17 11:50:36;;;;;;;13.90;2.97;;;8.80;99.90;;;;;;4938308;29;20473;-92
2021/03/17 11:53:02;;;;;;;12.55;3.30;;;8.80;99.90;;;;;;4939587;29;20039;-92
2021/03/17 11:55:28;;;;;;;10.35;3.00;;;8.80;99.90;;;;;;4956279;29;20047;-91
2021/03/17 11:57:54;;;;;;;18.25;3.78;;;8.90;99.90;;;;;;4953237;29;20230;-91
2021/03/17 12:00:22;;;;;;;16.17;3.83;;;8.90;99.90;;;;;;4956368;29;20047;-92
2021/03/17 12:02:48;;;;;;;17.20;3.97;;;9.00;99.90;;;;;;4958840;29;20094;-92
2021/03/17 12:05:15;;;;;;;10.60;3.15;;;9.00;99.90;;;;;;4961500;29;20034;-93
2021/03/17 12:07:41;;;;;;;16.85;3.72;;;9.10;99.90;;;;;;4975450;29;20023;-92
2021/03/17 12:10:08;;;;;;;13.98;4.07;;;9.10;99.90;;;;;;4958377;29;20107;-91
2021/03/17 12:12:34;;;;;;;17.88;3.40;;;9.10;99.90;;;;;;4946688;29;20031;-92
2021/03/17 12:15:00;;;;;;;12.07;2.85;;;9.20;99.90;;;;;;4955286;29;20405;-92
2021/03/17 12:17:26;;;;;;;19.38;4.55;;;9.20;99.90;;;;;;4947229;29;20031;-90
2021/03/17 12:19:52;;;;;;;16.85;3.58;;;9.20;99.90;;;;;;4945151;29;20031;-92
2021/03/17 12:22:18;;;;;;;18.67;4.13;;;9.20;99.90;;;;;;4943574;29;20024;-93
2021/03/17 12:24:43;;;;;;;21.05;5.75;;;9.20;99.90;;;;;;4944452;29;20070;-93
2021/03/17 12:27:10;;;;;;;20.55;5.05;;;9.10;99.90;;;;;;4942034;29;20130;-92
2021/03/17 12:29:36;;;;;;;24.73;6.88;;;9.10;99.90;;;;;;4941939;29;20042;-93
2021/03/17 12:32:03;;;;;;;20.75;4.57;;;9.10;99.90;;;;;;4941934;29;20019;-93
2021/03/17 12:34:28;;;;;;;24.85;5.25;;;9.00;99.90;;;;;;4940783;29;20039;-93
2021/03/17 12:36:57;;;;;;;22.38;5.60;;;9.00;99.70;;;;;;4941581;29;20033;-93
2021/03/17 12:39:28;;;;;;;16.65;4.30;;;9.00;99.60;;;;;;4957516;29;20003;-96
2021/03/17 12:42:11;;;;;;;22.55;4.72;;;9.00;99.40;;;;;;4943465;29;20115;-95
2021/03/17 12:50:17;;;;;;;26.42;6.10;;;9.20;98.90;;;;;;5094634;23;20031;-96
2021/03/17 12:55:20;;;;;;;16.65;4.22;;;9.70;97.70;;;;;;5064973;23;20070;-96
2021/03/17 12:57:46;;;;;;;22.02;4.80;;;10.10;97.30;;;;;;4959876;29;20027;-94
2021/03/17 13:00:17;;;;;;;20.30;4.85;;;10.70;95.60;;;;;;4957503;29;20091;-93
2021/03/17 13:02:45;;;;;;;17.92;4.47;;;11.10;93.80;;;;;;4960249;29;20026;-94
2021/03/17 13:05:13;;;;;;;19.77;3.80;;;11.60;93.00;;;;;;4958895;29;20095;-93
2021/03/17 13:07:44;;;;;;;21.30;3.97;;;12.10;91.50;;;;;;4960611;29;20031;-93
2021/03/17 13:10:16;;;;;;;11.65;3.60;;;12.80;90.90;;;;;;4952884;29;20039;-95
2021/03/17 13:12:43;;;;;;;19.48;4.63;;;13.40;88.00;;;;;;4964547;29;20034;-94